sensor_id;sensor_type;location;lat;lon;timestamp;P1;durP1;ratioP1;P2;durP2;ratioP2
78308;SDS011;67566;42.022;21.356;2023-02-28T00:01:39;35.65;;;21.55;;
78308;SDS011;67566;42.022;21.356;2023-02-28T00:04:04;29.13;;;16.83;;
78308;SDS011;67566;42.022;21.356;2023-02-28T00:06:30;29.52;;;16.23;;
78308;SDS011;67566;42.022;21.356;2023-02-28T00:08:55;32.55;;;18.98;;
78308;SDS011;67566;42.022;21.356;2023-02-28T00:11:21;25.05;;;14.40;;
78308;SDS011;67566;42.022;21.356;2023-02-28T00:13:47;28.60;;;16.17;;
78308;SDS011;67566;42.022;21.356;2023-02-28T00:16:14;37.00;;;19.80;;
78308;SDS011;67566;42.022;21.356;2023-02-28T00:18:42;31.23;;;17.73;;
78308;SDS011;67566;42.022;21.356;2023-02-28T00:21:08;34.65;;;18.25;;
78308;SDS011;67566;42.022;21.356;2023-02-28T00:23:34;41.67;;;21.25;;
78308;SDS011;67566;42.022;21.356;2023-02-28T00:26:00;52.45;;;25.77;;
78308;SDS011;67566;42.022;21.356;2023-02-28T00:28:26;55.83;;;28.20;;
78308;SDS011;67566;42.022;21.356;2023-02-28T00:30:52;36.83;;;19.23;;
78308;SDS011;67566;42.022;21.356;2023-02-28T00:33:17;30.67;;;17.83;;
78308;SDS011;67566;42.022;21.356;2023-02-28T00:35:43;34.90;;;20.45;;
78308;SDS011;67566;42.022;21.356;2023-02-28T00:38:11;28.23;;;15.80;;
78308;SDS011;67566;42.022;21.356;2023-02-28T00:40:38;30.20;;;17.50;;
78308;SDS011;67566;42.022;21.356;2023-02-28T00:43:03;28.17;;;15.52;;
78308;SDS011;67566;42.022;21.356;2023-02-28T00:45:29;32.65;;;16.80;;
78308;SDS011;67566;42.022;21.356;2023-02-28T00:47:54;30.00;;;17.73;;
78308;SDS011;67566;42.022;21.356;2023-02-28T00:50:20;29.95;;;16.40;;
78308;SDS011;67566;42.022;21.356;2023-02-28T00:52:46;33.38;;;18.88;;
78308;SDS011;67566;42.022;21.356;2023-02-28T00:55:12;31.70;;;17.27;;
78308;SDS011;67566;42.022;21.356;2023-02-28T00:57:38;32.95;;;18.30;;
78308;SDS011;67566;42.022;21.356;2023-02-28T01:00:04;35.80;;;18.80;;
78308;SDS011;67566;42.022;21.356;2023-02-28T01:02:30;29.55;;;16.30;;
78308;SDS011;67566;42.022;21.356;2023-02-28T01:04:55;25.48;;;15.73;;
78308;SDS011;67566;42.022;21.356;2023-02-28T01:07:22;40.05;;;20.00;;
78308;SDS011;67566;42.022;21.356;2023-02-28T01:09:48;31.63;;;17.30;;
78308;SDS011;67566;42.022;21.356;2023-02-28T01:12:14;31.38;;;17.40;;
78308;SDS011;67566;42.022;21.356;2023-02-28T01:14:40;32.42;;;16.85;;
78308;SDS011;67566;42.022;21.356;2023-02-28T01:17:06;36.08;;;19.63;;
78308;SDS011;67566;42.022;21.356;2023-02-28T01:19:31;37.72;;;19.23;;
78308;SDS011;67566;42.022;21.356;2023-02-28T01:21:59;30.00;;;16.70;;
78308;SDS011;67566;42.022;21.356;2023-02-28T01:24:26;29.52;;;17.20;;
78308;SDS011;67566;42.022;21.356;2023-02-28T01:26:51;28.70;;;15.93;;
78308;SDS011;67566;42.022;21.356;2023-02-28T01:29:17;30.25;;;17.13;;
78308;SDS011;67566;42.022;21.356;2023-02-28T01:31:42;32.08;;;17.00;;
78308;SDS011;67566;42.022;21.356;2023-02-28T01:34:08;31.58;;;17.40;;
78308;SDS011;67566;42.022;21.356;2023-02-28T01:36:33;29.60;;;15.48;;
78308;SDS011;67566;42.022;21.356;2023-02-28T01:38:59;30.23;;;16.00;;
78308;SDS011;67566;42.022;21.356;2023-02-28T01:41:25;31.70;;;15.70;;
78308;SDS011;67566;42.022;21.356;2023-02-28T01:46:24;34.20;;;17.52;;
78308;SDS011;67566;42.022;21.356;2023-02-28T01:49:05;31.30;;;15.55;;
78308;SDS011;67566;42.022;21.356;2023-02-28T01:51:37;31.13;;;16.95;;
78308;SDS011;67566;42.022;21.356;2023-02-28T01:54:11;28.92;;;15.63;;
78308;SDS011;67566;42.022;21.356;2023-02-28T01:56:44;30.80;;;16.92;;
78308;SDS011;67566;42.022;21.356;2023-02-28T01:59:16;25.63;;;14.45;;
78308;SDS011;67566;42.022;21.356;2023-02-28T02:01:58;46.00;;;22.13;;
78308;SDS011;67566;42.022;21.356;2023-02-28T02:04:26;40.35;;;20.88;;
78308;SDS011;67566;42.022;21.356;2023-02-28T02:06:58;33.90;;;17.20;;
78308;SDS011;67566;42.022;21.356;2023-02-28T02:09:23;27.45;;;14.52;;
78308;SDS011;67566;42.022;21.356;2023-02-28T02:11:49;31.13;;;17.52;;
78308;SDS011;67566;42.022;21.356;2023-02-28T02:14:28;36.13;;;17.02;;
78308;SDS011;67566;42.022;21.356;2023-02-28T02:19:41;36.40;;;18.23;;
78308;SDS011;67566;42.022;21.356;2023-02-28T02:42:25;34.45;;;17.00;;
78308;SDS011;67566;42.022;21.356;2023-02-28T02:44:59;39.40;;;18.20;;
78308;SDS011;67566;42.022;21.356;2023-02-28T02:47:29;27.73;;;15.15;;
78308;SDS011;67566;42.022;21.356;2023-02-28T02:49:57;29.00;;;16.02;;
78308;SDS011;67566;42.022;21.356;2023-02-28T02:52:40;31.45;;;16.27;;
78308;SDS011;67566;42.022;21.356;2023-02-28T02:55:13;31.10;;;16.15;;
78308;SDS011;67566;42.022;21.356;2023-02-28T02:57:58;23.30;;;14.02;;
78308;SDS011;67566;42.022;21.356;2023-02-28T03:00:32;32.97;;;17.25;;
78308;SDS011;67566;42.022;21.356;2023-02-28T03:03:02;32.53;;;16.27;;
78308;SDS011;67566;42.022;21.356;2023-02-28T03:05:41;35.47;;;17.63;;
78308;SDS011;67566;42.022;21.356;2023-02-28T03:08:09;31.75;;;16.73;;
78308;SDS011;67566;42.022;21.356;2023-02-28T03:10:40;28.92;;;15.75;;
78308;SDS011;67566;42.022;21.356;2023-02-28T03:25:19;23.70;;;13.32;;
78308;SDS011;67566;42.022;21.356;2023-02-28T03:30:38;28.73;;;14.60;;
78308;SDS011;67566;42.022;21.356;2023-02-28T03:33:21;27.25;;;15.13;;
78308;SDS011;67566;42.022;21.356;2023-02-28T03:35:54;25.98;;;14.77;;
78308;SDS011;67566;42.022;21.356;2023-02-28T03:38:28;27.52;;;15.60;;
78308;SDS011;67566;42.022;21.356;2023-02-28T03:41:06;29.10;;;15.95;;
78308;SDS011;67566;42.022;21.356;2023-02-28T03:43:40;25.88;;;12.40;;
78308;SDS011;67566;42.022;21.356;2023-02-28T03:46:11;28.42;;;15.27;;
78308;SDS011;67566;42.022;21.356;2023-02-28T03:48:47;31.63;;;15.52;;
78308;SDS011;67566;42.022;21.356;2023-02-28T03:51:18;30.27;;;16.05;;
78308;SDS011;67566;42.022;21.356;2023-02-28T03:53:49;25.55;;;13.32;;
78308;SDS011;67566;42.022;21.356;2023-02-28T03:59:07;24.52;;;12.55;;
78308;SDS011;67566;42.022;21.356;2023-02-28T04:01:40;28.05;;;14.23;;
78308;SDS011;67566;42.022;21.356;2023-02-28T04:04:08;29.88;;;14.70;;
78308;SDS011;67566;42.022;21.356;2023-02-28T04:06:35;27.15;;;14.55;;
78308;SDS011;67566;42.022;21.356;2023-02-28T04:09:02;28.50;;;15.13;;
78308;SDS011;67566;42.022;21.356;2023-02-28T04:11:33;32.95;;;18.60;;
78308;SDS011;67566;42.022;21.356;2023-02-28T04:14:01;43.75;;;22.10;;
78308;SDS011;67566;42.022;21.356;2023-02-28T04:16:28;26.60;;;15.35;;
78308;SDS011;67566;42.022;21.356;2023-02-28T04:18:54;26.85;;;14.85;;
78308;SDS011;67566;42.022;21.356;2023-02-28T04:21:27;27.85;;;16.30;;
78308;SDS011;67566;42.022;21.356;2023-02-28T04:23:53;27.80;;;15.68;;
78308;SDS011;67566;42.022;21.356;2023-02-28T04:26:19;32.13;;;16.05;;
78308;SDS011;67566;42.022;21.356;2023-02-28T04:28:44;28.40;;;14.70;;
78308;SDS011;67566;42.022;21.356;2023-02-28T04:31:10;26.25;;;14.13;;
78308;SDS011;67566;42.022;21.356;2023-02-28T04:33:35;30.80;;;18.65;;
78308;SDS011;67566;42.022;21.356;2023-02-28T04:36:03;32.10;;;16.23;;
78308;SDS011;67566;42.022;21.356;2023-02-28T04:38:32;31.13;;;15.90;;
78308;SDS011;67566;42.022;21.356;2023-02-28T04:40:59;29.30;;;16.17;;
78308;SDS011;67566;42.022;21.356;2023-02-28T04:43:26;34.78;;;18.02;;
78308;SDS011;67566;42.022;21.356;2023-02-28T04:45:55;35.03;;;16.77;;
78308;SDS011;67566;42.022;21.356;2023-02-28T04:48:22;30.88;;;17.05;;
78308;SDS011;67566;42.022;21.356;2023-02-28T04:50:49;32.70;;;16.70;;
78308;SDS011;67566;42.022;21.356;2023-02-28T04:53:14;36.13;;;18.40;;
78308;SDS011;67566;42.022;21.356;2023-02-28T04:55:40;32.28;;;17.05;;
78308;SDS011;67566;42.022;21.356;2023-02-28T04:58:05;36.45;;;18.85;;
78308;SDS011;67566;42.022;21.356;2023-02-28T05:00:31;35.90;;;19.50;;
78308;SDS011;67566;42.022;21.356;2023-02-28T05:02:56;30.48;;;16.92;;
78308;SDS011;67566;42.022;21.356;2023-02-28T05:05:22;35.08;;;17.77;;
78308;SDS011;67566;42.022;21.356;2023-02-28T05:07:47;44.67;;;20.80;;
78308;SDS011;67566;42.022;21.356;2023-02-28T05:10:12;42.83;;;19.60;;
78308;SDS011;67566;42.022;21.356;2023-02-28T05:12:38;34.05;;;17.25;;
78308;SDS011;67566;42.022;21.356;2023-02-28T05:15:04;34.10;;;18.10;;
78308;SDS011;67566;42.022;21.356;2023-02-28T05:17:30;35.95;;;18.35;;
78308;SDS011;67566;42.022;21.356;2023-02-28T05:19:56;35.53;;;17.55;;
78308;SDS011;67566;42.022;21.356;2023-02-28T05:22:22;35.17;;;19.23;;
78308;SDS011;67566;42.022;21.356;2023-02-28T05:24:47;39.05;;;19.30;;
78308;SDS011;67566;42.022;21.356;2023-02-28T05:27:13;39.97;;;19.42;;
78308;SDS011;67566;42.022;21.356;2023-02-28T05:29:38;32.88;;;17.08;;
78308;SDS011;67566;42.022;21.356;2023-02-28T05:32:10;31.65;;;16.88;;
78308;SDS011;67566;42.022;21.356;2023-02-28T05:34:37;31.75;;;18.02;;
78308;SDS011;67566;42.022;21.356;2023-02-28T05:37:04;32.63;;;16.35;;
78308;SDS011;67566;42.022;21.356;2023-02-28T05:39:30;26.98;;;14.68;;
78308;SDS011;67566;42.022;21.356;2023-02-28T05:41:56;30.23;;;16.08;;
78308;SDS011;67566;42.022;21.356;2023-02-28T05:44:21;27.40;;;15.00;;
78308;SDS011;67566;42.022;21.356;2023-02-28T05:46:46;31.02;;;16.20;;
78308;SDS011;67566;42.022;21.356;2023-02-28T05:49:12;52.72;;;27.25;;
78308;SDS011;67566;42.022;21.356;2023-02-28T05:51:37;36.25;;;18.35;;
78308;SDS011;67566;42.022;21.356;2023-02-28T05:54:06;103.18;;;38.63;;
78308;SDS011;67566;42.022;21.356;2023-02-28T05:56:31;47.28;;;22.63;;
78308;SDS011;67566;42.022;21.356;2023-02-28T05:58:59;44.40;;;21.83;;
78308;SDS011;67566;42.022;21.356;2023-02-28T06:01:35;40.60;;;19.05;;
78308;SDS011;67566;42.022;21.356;2023-02-28T06:04:13;37.90;;;18.88;;
78308;SDS011;67566;42.022;21.356;2023-02-28T06:06:43;26.80;;;15.48;;
78308;SDS011;67566;42.022;21.356;2023-02-28T06:09:09;33.92;;;16.75;;
78308;SDS011;67566;42.022;21.356;2023-02-28T06:11:35;33.28;;;16.70;;
78308;SDS011;67566;42.022;21.356;2023-02-28T06:14:01;36.35;;;19.88;;
78308;SDS011;67566;42.022;21.356;2023-02-28T06:16:27;29.98;;;16.35;;
78308;SDS011;67566;42.022;21.356;2023-02-28T06:18:54;26.48;;;13.82;;
78308;SDS011;67566;42.022;21.356;2023-02-28T06:21:22;32.17;;;15.75;;
78308;SDS011;67566;42.022;21.356;2023-02-28T06:23:47;26.52;;;15.40;;
78308;SDS011;67566;42.022;21.356;2023-02-28T06:26:13;28.75;;;15.25;;
78308;SDS011;67566;42.022;21.356;2023-02-28T06:28:39;29.27;;;15.00;;
78308;SDS011;67566;42.022;21.356;2023-02-28T06:31:08;45.08;;;23.50;;
78308;SDS011;67566;42.022;21.356;2023-02-28T06:33:35;31.52;;;17.83;;
78308;SDS011;67566;42.022;21.356;2023-02-28T06:36:02;34.28;;;18.75;;
78308;SDS011;67566;42.022;21.356;2023-02-28T06:38:29;33.83;;;17.77;;
78308;SDS011;67566;42.022;21.356;2023-02-28T06:40:55;28.67;;;16.55;;
78308;SDS011;67566;42.022;21.356;2023-02-28T06:43:23;33.22;;;18.02;;
78308;SDS011;67566;42.022;21.356;2023-02-28T06:45:49;34.25;;;17.08;;
78308;SDS011;67566;42.022;21.356;2023-02-28T06:48:15;27.90;;;15.15;;
78308;SDS011;67566;42.022;21.356;2023-02-28T06:50:40;31.23;;;14.45;;
78308;SDS011;67566;42.022;21.356;2023-02-28T06:53:06;30.48;;;15.40;;
78308;SDS011;67566;42.022;21.356;2023-02-28T06:55:31;24.70;;;14.32;;
78308;SDS011;67566;42.022;21.356;2023-02-28T06:57:57;30.52;;;15.25;;
78308;SDS011;67566;42.022;21.356;2023-02-28T07:00:29;31.80;;;18.75;;
78308;SDS011;67566;42.022;21.356;2023-02-28T07:03:15;27.35;;;15.63;;
78308;SDS011;67566;42.022;21.356;2023-02-28T07:05:42;29.20;;;15.82;;
78308;SDS011;67566;42.022;21.356;2023-02-28T07:08:07;27.98;;;15.02;;
78308;SDS011;67566;42.022;21.356;2023-02-28T07:10:33;33.70;;;17.58;;
78308;SDS011;67566;42.022;21.356;2023-02-28T07:12:59;29.20;;;16.00;;
78308;SDS011;67566;42.022;21.356;2023-02-28T07:15:25;33.10;;;17.17;;
78308;SDS011;67566;42.022;21.356;2023-02-28T07:17:51;42.15;;;26.23;;
78308;SDS011;67566;42.022;21.356;2023-02-28T07:20:16;34.60;;;18.58;;
78308;SDS011;67566;42.022;21.356;2023-02-28T07:22:42;29.40;;;17.48;;
78308;SDS011;67566;42.022;21.356;2023-02-28T07:25:08;36.75;;;18.08;;
78308;SDS011;67566;42.022;21.356;2023-02-28T07:27:34;36.53;;;21.42;;
78308;SDS011;67566;42.022;21.356;2023-02-28T07:29:59;31.75;;;18.35;;
78308;SDS011;67566;42.022;21.356;2023-02-28T07:32:28;32.10;;;18.15;;
78308;SDS011;67566;42.022;21.356;2023-02-28T07:34:54;30.83;;;17.75;;
78308;SDS011;67566;42.022;21.356;2023-02-28T07:37:20;26.58;;;15.52;;
78308;SDS011;67566;42.022;21.356;2023-02-28T07:39:45;38.08;;;19.33;;
78308;SDS011;67566;42.022;21.356;2023-02-28T07:42:11;37.13;;;21.35;;
78308;SDS011;67566;42.022;21.356;2023-02-28T07:44:38;36.10;;;19.70;;
78308;SDS011;67566;42.022;21.356;2023-02-28T07:47:08;40.13;;;22.42;;
78308;SDS011;67566;42.022;21.356;2023-02-28T07:49:35;39.67;;;21.58;;
78308;SDS011;67566;42.022;21.356;2023-02-28T07:52:02;40.00;;;22.20;;
78308;SDS011;67566;42.022;21.356;2023-02-28T07:56:59;38.28;;;19.42;;
78308;SDS011;67566;42.022;21.356;2023-02-28T07:59:25;37.78;;;20.50;;
78308;SDS011;67566;42.022;21.356;2023-02-28T08:01:50;38.10;;;21.92;;
78308;SDS011;67566;42.022;21.356;2023-02-28T08:04:17;42.67;;;22.73;;
78308;SDS011;67566;42.022;21.356;2023-02-28T08:06:42;37.75;;;19.65;;
78308;SDS011;67566;42.022;21.356;2023-02-28T08:09:08;39.35;;;20.88;;
78308;SDS011;67566;42.022;21.356;2023-02-28T08:11:33;36.95;;;19.58;;
78308;SDS011;67566;42.022;21.356;2023-02-28T08:13:59;32.58;;;19.38;;
78308;SDS011;67566;42.022;21.356;2023-02-28T08:16:24;36.40;;;21.27;;
78308;SDS011;67566;42.022;21.356;2023-02-28T08:18:53;54.60;;;31.17;;
78308;SDS011;67566;42.022;21.356;2023-02-28T08:21:19;38.50;;;22.17;;
78308;SDS011;67566;42.022;21.356;2023-02-28T08:23:46;36.78;;;21.17;;
78308;SDS011;67566;42.022;21.356;2023-02-28T08:26:13;44.58;;;24.17;;
78308;SDS011;67566;42.022;21.356;2023-02-28T08:28:39;37.15;;;21.65;;
78308;SDS011;67566;42.022;21.356;2023-02-28T08:31:11;37.75;;;19.42;;
78308;SDS011;67566;42.022;21.356;2023-02-28T08:33:39;33.28;;;18.92;;
78308;SDS011;67566;42.022;21.356;2023-02-28T08:36:05;38.58;;;20.88;;
78308;SDS011;67566;42.022;21.356;2023-02-28T08:38:32;37.97;;;20.85;;
78308;SDS011;67566;42.022;21.356;2023-02-28T08:41:01;34.60;;;19.65;;
78308;SDS011;67566;42.022;21.356;2023-02-28T08:43:31;31.05;;;18.48;;
78308;SDS011;67566;42.022;21.356;2023-02-28T08:45:56;32.10;;;18.98;;
78308;SDS011;67566;42.022;21.356;2023-02-28T08:48:23;31.73;;;18.27;;
78308;SDS011;67566;42.022;21.356;2023-02-28T08:50:58;33.78;;;18.85;;
78308;SDS011;67566;42.022;21.356;2023-02-28T08:56:01;38.95;;;22.02;;
78308;SDS011;67566;42.022;21.356;2023-02-28T08:58:28;36.47;;;21.10;;
78308;SDS011;67566;42.022;21.356;2023-02-28T09:00:54;34.03;;;19.25;;
78308;SDS011;67566;42.022;21.356;2023-02-28T09:03:25;36.33;;;19.98;;
78308;SDS011;67566;42.022;21.356;2023-02-28T09:06:01;32.95;;;18.73;;
78308;SDS011;67566;42.022;21.356;2023-02-28T09:08:27;43.58;;;22.00;;
78308;SDS011;67566;42.022;21.356;2023-02-28T09:10:58;35.30;;;20.23;;
78308;SDS011;67566;42.022;21.356;2023-02-28T09:13:27;30.20;;;18.33;;
78308;SDS011;67566;42.022;21.356;2023-02-28T09:15:53;34.17;;;18.63;;
78308;SDS011;67566;42.022;21.356;2023-02-28T09:18:20;40.03;;;22.10;;
78308;SDS011;67566;42.022;21.356;2023-02-28T09:20:45;32.65;;;20.50;;
78308;SDS011;67566;42.022;21.356;2023-02-28T09:26:30;36.53;;;21.45;;
78308;SDS011;67566;42.022;21.356;2023-02-28T09:28:55;35.60;;;21.25;;
78308;SDS011;67566;42.022;21.356;2023-02-28T09:31:24;36.58;;;22.90;;
78308;SDS011;67566;42.022;21.356;2023-02-28T09:33:53;41.95;;;23.33;;
78308;SDS011;67566;42.022;21.356;2023-02-28T09:36:20;40.75;;;22.63;;
78308;SDS011;67566;42.022;21.356;2023-02-28T09:38:47;34.88;;;21.08;;
78308;SDS011;67566;42.022;21.356;2023-02-28T09:41:24;30.35;;;17.38;;
78308;SDS011;67566;42.022;21.356;2023-02-28T09:43:55;37.78;;;24.35;;
78308;SDS011;67566;42.022;21.356;2023-02-28T09:49:05;31.17;;;18.42;;
78308;SDS011;67566;42.022;21.356;2023-02-28T09:54:09;31.70;;;19.42;;
78308;SDS011;67566;42.022;21.356;2023-02-28T09:56:44;31.63;;;19.15;;
78308;SDS011;67566;42.022;21.356;2023-02-28T10:04:42;25.73;;;14.93;;
78308;SDS011;67566;42.022;21.356;2023-02-28T10:10:17;20.23;;;12.18;;
78308;SDS011;67566;42.022;21.356;2023-02-28T10:12:50;25.45;;;14.23;;
78308;SDS011;67566;42.022;21.356;2023-02-28T10:15:19;24.38;;;15.45;;
78308;SDS011;67566;42.022;21.356;2023-02-28T10:17:51;24.70;;;13.07;;
78308;SDS011;67566;42.022;21.356;2023-02-28T10:20:22;23.48;;;15.18;;
78308;SDS011;67566;42.022;21.356;2023-02-28T10:23:15;25.75;;;14.35;;
78308;SDS011;67566;42.022;21.356;2023-02-28T10:25:47;28.08;;;18.05;;
78308;SDS011;67566;42.022;21.356;2023-02-28T10:28:20;32.95;;;21.40;;
78308;SDS011;67566;42.022;21.356;2023-02-28T10:30:46;34.70;;;21.40;;
78308;SDS011;67566;42.022;21.356;2023-02-28T10:33:18;44.67;;;26.00;;
78308;SDS011;67566;42.022;21.356;2023-02-28T10:35:58;37.45;;;22.73;;
78308;SDS011;67566;42.022;21.356;2023-02-28T10:38:26;53.00;;;28.63;;
78308;SDS011;67566;42.022;21.356;2023-02-28T10:41:03;32.08;;;19.08;;
78308;SDS011;67566;42.022;21.356;2023-02-28T10:43:30;37.13;;;21.98;;
78308;SDS011;67566;42.022;21.356;2023-02-28T10:51:02;47.13;;;26.08;;
78308;SDS011;67566;42.022;21.356;2023-02-28T10:56:04;37.50;;;23.58;;
78308;SDS011;67566;42.022;21.356;2023-02-28T11:01:38;42.92;;;24.60;;
78308;SDS011;67566;42.022;21.356;2023-02-28T11:07:19;39.63;;;22.48;;
78308;SDS011;67566;42.022;21.356;2023-02-28T11:09:50;36.30;;;22.25;;
78308;SDS011;67566;42.022;21.356;2023-02-28T11:14:54;36.40;;;22.77;;
78308;SDS011;67566;42.022;21.356;2023-02-28T11:17:24;37.67;;;21.80;;
78308;SDS011;67566;42.022;21.356;2023-02-28T11:19:53;41.40;;;22.05;;
78308;SDS011;67566;42.022;21.356;2023-02-28T11:22:23;38.97;;;23.80;;
78308;SDS011;67566;42.022;21.356;2023-02-28T11:24:53;42.78;;;25.25;;
78308;SDS011;67566;42.022;21.356;2023-02-28T11:29:59;40.30;;;25.42;;
78308;SDS011;67566;42.022;21.356;2023-02-28T11:32:26;38.00;;;22.42;;
78308;SDS011;67566;42.022;21.356;2023-02-28T11:37:50;36.00;;;22.17;;
78308;SDS011;67566;42.022;21.356;2023-02-28T11:40:18;36.35;;;21.60;;
78308;SDS011;67566;42.022;21.356;2023-02-28T11:42:54;32.40;;;20.45;;
78308;SDS011;67566;42.022;21.356;2023-02-28T11:48:12;27.70;;;17.55;;
78308;SDS011;67566;42.022;21.356;2023-02-28T11:56:05;33.42;;;20.63;;
78308;SDS011;67566;42.022;21.356;2023-02-28T11:58:52;33.88;;;20.83;;
78308;SDS011;67566;42.022;21.356;2023-02-28T12:06:55;35.10;;;21.38;;
78308;SDS011;67566;42.022;21.356;2023-02-28T12:17:55;24.95;;;14.73;;
78308;SDS011;67566;42.022;21.356;2023-02-28T12:20:37;32.08;;;17.00;;
78308;SDS011;67566;42.022;21.356;2023-02-28T12:26:00;27.88;;;13.27;;
78308;SDS011;67566;42.022;21.356;2023-02-28T12:28:36;29.40;;;14.85;;
78308;SDS011;67566;42.022;21.356;2023-02-28T12:31:11;23.83;;;10.32;;
78308;SDS011;67566;42.022;21.356;2023-02-28T12:33:45;20.38;;;12.05;;
78308;SDS011;67566;42.022;21.356;2023-02-28T12:36:16;23.50;;;11.95;;
78308;SDS011;67566;42.022;21.356;2023-02-28T12:41:53;22.15;;;13.70;;
78308;SDS011;67566;42.022;21.356;2023-02-28T12:44:28;24.27;;;12.93;;
78308;SDS011;67566;42.022;21.356;2023-02-28T12:47:00;29.65;;;13.23;;
78308;SDS011;67566;42.022;21.356;2023-02-28T12:52:02;41.40;;;20.38;;
78308;SDS011;67566;42.022;21.356;2023-02-28T12:54:35;23.40;;;13.23;;
78308;SDS011;67566;42.022;21.356;2023-02-28T12:57:09;25.65;;;12.18;;
78308;SDS011;67566;42.022;21.356;2023-02-28T13:02:38;28.58;;;13.93;;
78308;SDS011;67566;42.022;21.356;2023-02-28T13:10:20;21.92;;;12.38;;
78308;SDS011;67566;42.022;21.356;2023-02-28T13:12:49;26.80;;;12.00;;
78308;SDS011;67566;42.022;21.356;2023-02-28T13:15:19;20.92;;;10.93;;
78308;SDS011;67566;42.022;21.356;2023-02-28T13:17:53;25.42;;;15.15;;
78308;SDS011;67566;42.022;21.356;2023-02-28T13:20:25;33.90;;;14.77;;
78308;SDS011;67566;42.022;21.356;2023-02-28T13:22:53;28.80;;;15.25;;
78308;SDS011;67566;42.022;21.356;2023-02-28T13:28:11;24.35;;;13.57;;
78308;SDS011;67566;42.022;21.356;2023-02-28T13:36:29;24.80;;;12.38;;
78308;SDS011;67566;42.022;21.356;2023-02-28T13:38:57;32.63;;;15.38;;
78308;SDS011;67566;42.022;21.356;2023-02-28T13:44:05;27.58;;;14.98;;
78308;SDS011;67566;42.022;21.356;2023-02-28T13:46:32;30.98;;;16.58;;
78308;SDS011;67566;42.022;21.356;2023-02-28T14:05:43;28.75;;;16.60;;
78308;SDS011;67566;42.022;21.356;2023-02-28T14:10:47;42.10;;;21.10;;
78308;SDS011;67566;42.022;21.356;2023-02-28T14:16:10;36.63;;;18.77;;
78308;SDS011;67566;42.022;21.356;2023-02-28T14:18:40;33.22;;;16.88;;
78308;SDS011;67566;42.022;21.356;2023-02-28T14:21:23;34.38;;;19.15;;
78308;SDS011;67566;42.022;21.356;2023-02-28T14:37:45;34.90;;;19.65;;
78308;SDS011;67566;42.022;21.356;2023-02-28T14:40:17;44.65;;;25.25;;
78308;SDS011;67566;42.022;21.356;2023-02-28T14:42:56;35.47;;;17.65;;
78308;SDS011;67566;42.022;21.356;2023-02-28T14:45:24;34.72;;;17.52;;
78308;SDS011;67566;42.022;21.356;2023-02-28T14:47:54;31.83;;;15.75;;
78308;SDS011;67566;42.022;21.356;2023-02-28T14:50:20;32.45;;;18.13;;
78308;SDS011;67566;42.022;21.356;2023-02-28T14:52:48;36.83;;;19.27;;
78308;SDS011;67566;42.022;21.356;2023-02-28T14:57:55;32.28;;;15.25;;
78308;SDS011;67566;42.022;21.356;2023-02-28T15:00:24;52.97;;;26.52;;
78308;SDS011;67566;42.022;21.356;2023-02-28T15:02:55;39.95;;;21.58;;
78308;SDS011;67566;42.022;21.356;2023-02-28T15:05:26;43.03;;;23.75;;
78308;SDS011;67566;42.022;21.356;2023-02-28T15:10:31;118.60;;;56.45;;
78308;SDS011;67566;42.022;21.356;2023-02-28T15:13:02;66.47;;;34.60;;
78308;SDS011;67566;42.022;21.356;2023-02-28T15:15:51;29.10;;;17.23;;
78308;SDS011;67566;42.022;21.356;2023-02-28T15:18:22;31.13;;;15.45;;
78308;SDS011;67566;42.022;21.356;2023-02-28T15:21:11;29.25;;;14.38;;
78308;SDS011;67566;42.022;21.356;2023-02-28T15:23:40;26.92;;;14.65;;
78308;SDS011;67566;42.022;21.356;2023-02-28T15:26:19;39.67;;;19.77;;
78308;SDS011;67566;42.022;21.356;2023-02-28T15:28:48;32.60;;;16.35;;
78308;SDS011;67566;42.022;21.356;2023-02-28T15:33:55;30.90;;;17.80;;
78308;SDS011;67566;42.022;21.356;2023-02-28T15:36:24;44.80;;;22.05;;
78308;SDS011;67566;42.022;21.356;2023-02-28T15:41:37;36.83;;;16.60;;
78308;SDS011;67566;42.022;21.356;2023-02-28T15:47:02;54.15;;;24.92;;
78308;SDS011;67566;42.022;21.356;2023-02-28T15:49:32;33.70;;;15.77;;
78308;SDS011;67566;42.022;21.356;2023-02-28T15:52:04;40.65;;;18.70;;
78308;SDS011;67566;42.022;21.356;2023-02-28T15:54:32;45.83;;;24.55;;
78308;SDS011;67566;42.022;21.356;2023-02-28T15:57:06;42.42;;;21.83;;
78308;SDS011;67566;42.022;21.356;2023-02-28T15:59:33;39.45;;;19.95;;
78308;SDS011;67566;42.022;21.356;2023-02-28T16:02:17;51.35;;;24.48;;
78308;SDS011;67566;42.022;21.356;2023-02-28T16:08:11;33.65;;;16.20;;
78308;SDS011;67566;42.022;21.356;2023-02-28T16:10:40;34.72;;;19.08;;
78308;SDS011;67566;42.022;21.356;2023-02-28T16:13:05;39.45;;;19.17;;
78308;SDS011;67566;42.022;21.356;2023-02-28T16:15:34;45.60;;;22.30;;
78308;SDS011;67566;42.022;21.356;2023-02-28T16:18:07;40.08;;;20.15;;
78308;SDS011;67566;42.022;21.356;2023-02-28T16:20:35;41.90;;;20.60;;
78308;SDS011;67566;42.022;21.356;2023-02-28T16:23:00;40.60;;;20.00;;
78308;SDS011;67566;42.022;21.356;2023-02-28T16:25:34;40.60;;;21.45;;
78308;SDS011;67566;42.022;21.356;2023-02-28T16:28:13;36.65;;;20.58;;
78308;SDS011;67566;42.022;21.356;2023-02-28T16:33:18;35.80;;;20.33;;
78308;SDS011;67566;42.022;21.356;2023-02-28T16:35:44;38.20;;;19.42;;
78308;SDS011;67566;42.022;21.356;2023-02-28T16:38:09;38.20;;;20.30;;
78308;SDS011;67566;42.022;21.356;2023-02-28T16:40:35;50.38;;;24.40;;
78308;SDS011;67566;42.022;21.356;2023-02-28T16:43:03;48.33;;;25.30;;
78308;SDS011;67566;42.022;21.356;2023-02-28T16:45:32;51.80;;;27.13;;
78308;SDS011;67566;42.022;21.356;2023-02-28T16:47:58;49.45;;;26.63;;
78308;SDS011;67566;42.022;21.356;2023-02-28T16:50:25;49.85;;;27.63;;
78308;SDS011;67566;42.022;21.356;2023-02-28T16:52:52;53.17;;;26.98;;
78308;SDS011;67566;42.022;21.356;2023-02-28T16:55:19;47.83;;;25.55;;
78308;SDS011;67566;42.022;21.356;2023-02-28T16:57:59;45.35;;;26.33;;
78308;SDS011;67566;42.022;21.356;2023-02-28T17:00:26;52.65;;;27.67;;
78308;SDS011;67566;42.022;21.356;2023-02-28T17:02:53;49.40;;;26.45;;
78308;SDS011;67566;42.022;21.356;2023-02-28T17:05:19;50.00;;;28.30;;
78308;SDS011;67566;42.022;21.356;2023-02-28T17:07:45;53.78;;;30.73;;
78308;SDS011;67566;42.022;21.356;2023-02-28T17:10:16;51.45;;;27.50;;
78308;SDS011;67566;42.022;21.356;2023-02-28T17:12:45;45.10;;;25.77;;
78308;SDS011;67566;42.022;21.356;2023-02-28T17:15:11;48.55;;;27.65;;
78308;SDS011;67566;42.022;21.356;2023-02-28T17:17:39;51.45;;;26.92;;
78308;SDS011;67566;42.022;21.356;2023-02-28T17:20:06;52.08;;;28.63;;
78308;SDS011;67566;42.022;21.356;2023-02-28T17:22:32;52.42;;;26.95;;
78308;SDS011;67566;42.022;21.356;2023-02-28T17:24:57;47.33;;;24.60;;
78308;SDS011;67566;42.022;21.356;2023-02-28T17:27:23;46.47;;;24.45;;
78308;SDS011;67566;42.022;21.356;2023-02-28T17:29:49;57.35;;;30.50;;
78308;SDS011;67566;42.022;21.356;2023-02-28T17:32:15;59.90;;;32.72;;